sensor_id;sensor_type;location;lat;lon;timestamp;temperature;humidity
13369;DHT22;6753;52.520;13.450;2024-02-21T00:00:04;21.70;57.80
13369;DHT22;6753;52.520;13.450;2024-02-21T00:00:16;21.60;57.70
13369;DHT22;6753;52.520;13.450;2024-02-21T00:00:27;21.70;57.90
13369;DHT22;6753;52.520;13.450;2024-02-21T00:00:39;21.60;57.60
13369;DHT22;6753;52.520;13.450;2024-02-21T00:00:51;21.60;57.60
13369;DHT22;6753;52.520;13.450;2024-02-21T00:01:02;21.60;57.70
13369;DHT22;6753;52.520;13.450;2024-02-21T00:01:15;21.70;57.90
13369;DHT22;6753;52.520;13.450;2024-02-21T00:01:26;21.60;57.80
13369;DHT22;6753;52.520;13.450;2024-02-21T00:01:37;21.60;57.80
13369;DHT22;6753;52.520;13.450;2024-02-21T00:01:47;21.60;57.90
13369;DHT22;6753;52.520;13.450;2024-02-21T00:01:58;21.60;57.90
13369;DHT22;6753;52.520;13.450;2024-02-21T00:02:09;21.60;58.00
13369;DHT22;6753;52.520;13.450;2024-02-21T00:02:21;21.60;58.00
13369;DHT22;6753;52.520;13.450;2024-02-21T00:02:32;21.60;57.90
13369;DHT22;6753;52.520;13.450;2024-02-21T00:02:44;21.60;57.90
13369;DHT22;6753;52.520;13.450;2024-02-21T00:02:54;21.60;58.40
13369;DHT22;6753;52.520;13.450;2024-02-21T00:03:05;21.60;57.80
13369;DHT22;6753;52.520;13.450;2024-02-21T00:03:16;21.60;57.90
13369;DHT22;6753;52.520;13.450;2024-02-21T00:03:27;21.60;57.90
13369;DHT22;6753;52.520;13.450;2024-02-21T00:03:37;21.60;58.00
13369;DHT22;6753;52.520;13.450;2024-02-21T00:03:48;21.60;58.10
13369;DHT22;6753;52.520;13.450;2024-02-21T00:03:59;21.60;58.10
13369;DHT22;6753;52.520;13.450;2024-02-21T00:04:09;21.60;58.10
13369;DHT22;6753;52.520;13.450;2024-02-21T00:04:21;21.60;58.00
13369;DHT22;6753;52.520;13.450;2024-02-21T00:04:32;21.60;58.10
13369;DHT22;6753;52.520;13.450;2024-02-21T00:04:43;23.20;60.20
13369;DHT22;6753;52.520;13.450;2024-02-21T00:04:54;21.60;58.00
13369;DHT22;6753;52.520;13.450;2024-02-21T00:05:05;21.60;58.10
13369;DHT22;6753;52.520;13.450;2024-02-21T00:05:16;21.60;58.00
13369;DHT22;6753;52.520;13.450;2024-02-21T00:05:27;21.60;58.10
13369;DHT22;6753;52.520;13.450;2024-02-21T00:05:37;21.60;58.10
13369;DHT22;6753;52.520;13.450;2024-02-21T00:05:48;21.60;58.10
13369;DHT22;6753;52.520;13.450;2024-02-21T00:05:59;21.60;58.00
13369;DHT22;6753;52.520;13.450;2024-02-21T00:06:10;21.60;58.00
13369;DHT22;6753;52.520;13.450;2024-02-21T00:06:21;21.60;58.10
13369;DHT22;6753;52.520;13.450;2024-02-21T00:06:32;21.60;58.20
13369;DHT22;6753;52.520;13.450;2024-02-21T00:06:43;21.60;58.20
13369;DHT22;6753;52.520;13.450;2024-02-21T00:06:53;21.60;58.10
13369;DHT22;6753;52.520;13.450;2024-02-21T00:07:05;21.60;58.30
13369;DHT22;6753;52.520;13.450;2024-02-21T00:07:16;21.60;58.20
13369;DHT22;6753;52.520;13.450;2024-02-21T00:07:27;21.60;58.20
13369;DHT22;6753;52.520;13.450;2024-02-21T00:07:37;21.60;58.20
13369;DHT22;6753;52.520;13.450;2024-02-21T00:07:49;21.60;58.20
13369;DHT22;6753;52.520;13.450;2024-02-21T00:08:00;21.60;58.20
13369;DHT22;6753;52.520;13.450;2024-02-21T00:08:10;21.60;58.20
13369;DHT22;6753;52.520;13.450;2024-02-21T00:08:21;21.60;58.30
13369;DHT22;6753;52.520;13.450;2024-02-21T00:08:32;21.60;58.20
13369;DHT22;6753;52.520;13.450;2024-02-21T00:08:43;21.60;58.20
13369;DHT22;6753;52.520;13.450;2024-02-21T00:08:53;21.60;58.20
13369;DHT22;6753;52.520;13.450;2024-02-21T00:09:04;21.60;58.20
13369;DHT22;6753;52.520;13.450;2024-02-21T00:09:15;21.60;58.20
13369;DHT22;6753;52.520;13.450;2024-02-21T00:09:26;21.60;58.20
13369;DHT22;6753;52.520;13.450;2024-02-21T00:09:36;21.60;58.10
13369;DHT22;6753;52.520;13.450;2024-02-21T00:09:48;21.60;58.20
13369;DHT22;6753;52.520;13.450;2024-02-21T00:09:59;21.60;58.20
13369;DHT22;6753;52.520;13.450;2024-02-21T00:10:11;21.60;58.20
13369;DHT22;6753;52.520;13.450;2024-02-21T00:10:21;21.60;58.30
13369;DHT22;6753;52.520;13.450;2024-02-21T00:10:32;21.60;58.30
13369;DHT22;6753;52.520;13.450;2024-02-21T00:10:43;21.70;58.50
13369;DHT22;6753;52.520;13.450;2024-02-21T00:10:54;21.70;58.50
13369;DHT22;6753;52.520;13.450;2024-02-21T00:11:05;21.70;58.40
13369;DHT22;6753;52.520;13.450;2024-02-21T00:11:15;21.70;58.20
13369;DHT22;6753;52.520;13.450;2024-02-21T00:11:28;21.70;58.20
13369;DHT22;6753;52.520;13.450;2024-02-21T00:11:41;21.60;58.10
13369;DHT22;6753;52.520;13.450;2024-02-21T00:11:52;21.60;58.10
13369;DHT22;6753;52.520;13.450;2024-02-21T00:12:03;21.60;58.20
13369;DHT22;6753;52.520;13.450;2024-02-21T00:12:15;21.60;58.20
13369;DHT22;6753;52.520;13.450;2024-02-21T00:12:26;21.60;58.30
13369;DHT22;6753;52.520;13.450;2024-02-21T00:12:37;21.70;58.50
13369;DHT22;6753;52.520;13.450;2024-02-21T00:12:48;21.60;58.30
13369;DHT22;6753;52.520;13.450;2024-02-21T00:12:59;21.60;58.30
13369;DHT22;6753;52.520;13.450;2024-02-21T00:13:10;21.70;58.30
13369;DHT22;6753;52.520;13.450;2024-02-21T00:13:21;21.60;58.20
13369;DHT22;6753;52.520;13.450;2024-02-21T00:13:32;21.60;58.40
13369;DHT22;6753;52.520;13.450;2024-02-21T00:13:43;21.60;58.30
13369;DHT22;6753;52.520;13.450;2024-02-21T00:13:53;21.60;58.40
13369;DHT22;6753;52.520;13.450;2024-02-21T00:14:04;21.60;58.40
13369;DHT22;6753;52.520;13.450;2024-02-21T00:14:15;21.60;58.40
13369;DHT22;6753;52.520;13.450;2024-02-21T00:14:26;21.60;58.40
13369;DHT22;6753;52.520;13.450;2024-02-21T00:14:37;21.60;58.40
13369;DHT22;6753;52.520;13.450;2024-02-21T00:14:47;21.60;58.50
13369;DHT22;6753;52.520;13.450;2024-02-21T00:14:59;21.60;58.50
13369;DHT22;6753;52.520;13.450;2024-02-21T00:15:10;21.70;58.60
13369;DHT22;6753;52.520;13.450;2024-02-21T00:15:21;21.70;58.60
13369;DHT22;6753;52.520;13.450;2024-02-21T00:15:32;21.70;58.60
13369;DHT22;6753;52.520;13.450;2024-02-21T00:15:42;21.70;58.60
13369;DHT22;6753;52.520;13.450;2024-02-21T00:15:53;21.70;58.50
13369;DHT22;6753;52.520;13.450;2024-02-21T00:16:04;21.70;58.40
13369;DHT22;6753;52.520;13.450;2024-02-21T00:16:15;21.70;58.40
13369;DHT22;6753;52.520;13.450;2024-02-21T00:16:26;21.70;58.40
13369;DHT22;6753;52.520;13.450;2024-02-21T00:16:38;21.70;58.50
13369;DHT22;6753;52.520;13.450;2024-02-21T00:16:48;21.70;58.50
13369;DHT22;6753;52.520;13.450;2024-02-21T00:16:59;21.70;58.60
13369;DHT22;6753;52.520;13.450;2024-02-21T00:17:10;21.70;58.50
13369;DHT22;6753;52.520;13.450;2024-02-21T00:17:21;21.70;58.50
13369;DHT22;6753;52.520;13.450;2024-02-21T00:17:31;21.70;58.60
13369;DHT22;6753;52.520;13.450;2024-02-21T00:17:44;21.70;58.60
13369;DHT22;6753;52.520;13.450;2024-02-21T00:17:55;21.70;58.60
13369;DHT22;6753;52.520;13.450;2024-02-21T00:18:06;21.70;58.60
13369;DHT22;6753;52.520;13.450;2024-02-21T00:18:16;21.80;58.70
13369;DHT22;6753;52.520;13.450;2024-02-21T00:18:27;21.70;58.50
13369;DHT22;6753;52.520;13.450;2024-02-21T00:18:38;21.70;58.60
13369;DHT22;6753;52.520;13.450;2024-02-21T00:18:50;21.70;58.50
13369;DHT22;6753;52.520;13.450;2024-02-21T00:19:00;21.70;58.30
13369;DHT22;6753;52.520;13.450;2024-02-21T00:19:11;21.70;58.20
13369;DHT22;6753;52.520;13.450;2024-02-21T00:19:22;21.70;58.30
13369;DHT22;6753;52.520;13.450;2024-02-21T00:19:32;21.70;58.40
13369;DHT22;6753;52.520;13.450;2024-02-21T00:19:43;21.70;58.50
13369;DHT22;6753;52.520;13.450;2024-02-21T00:19:54;21.60;58.30
13369;DHT22;6753;52.520;13.450;2024-02-21T00:20:06;21.60;58.30
13369;DHT22;6753;52.520;13.450;2024-02-21T00:20:17;21.60;58.20
13369;DHT22;6753;52.520;13.450;2024-02-21T00:20:28;21.60;58.20
13369;DHT22;6753;52.520;13.450;2024-02-21T00:20:40;21.60;58.40
13369;DHT22;6753;52.520;13.450;2024-02-21T00:20:51;21.60;58.30
13369;DHT22;6753;52.520;13.450;2024-02-21T00:21:02;21.60;58.30
13369;DHT22;6753;52.520;13.450;2024-02-21T00:21:13;21.60;58.30
13369;DHT22;6753;52.520;13.450;2024-02-21T00:21:28;21.60;58.30
13369;DHT22;6753;52.520;13.450;2024-02-21T00:21:39;21.60;58.40
13369;DHT22;6753;52.520;13.450;2024-02-21T00:21:49;21.60;58.40
13369;DHT22;6753;52.520;13.450;2024-02-21T00:22:00;21.70;58.60
13369;DHT22;6753;52.520;13.450;2024-02-21T00:22:11;21.60;58.40
13369;DHT22;6753;52.520;13.450;2024-02-21T00:22:21;21.60;58.30
13369;DHT22;6753;52.520;13.450;2024-02-21T00:22:33;21.60;58.20
13369;DHT22;6753;52.520;13.450;2024-02-21T00:22:44;21.60;58.20
13369;DHT22;6753;52.520;13.450;2024-02-21T00:22:55;21.60;58.30
13369;DHT22;6753;52.520;13.450;2024-02-21T00:23:05;21.60;58.40
13369;DHT22;6753;52.520;13.450;2024-02-21T00:23:16;21.60;58.40
13369;DHT22;6753;52.520;13.450;2024-02-21T00:23:27;21.60;58.40
13369;DHT22;6753;52.520;13.450;2024-02-21T00:23:38;21.60;58.50
13369;DHT22;6753;52.520;13.450;2024-02-21T00:23:48;21.60;58.20
13369;DHT22;6753;52.520;13.450;2024-02-21T00:24:01;21.60;58.50
13369;DHT22;6753;52.520;13.450;2024-02-21T00:24:12;21.60;58.50
13369;DHT22;6753;52.520;13.450;2024-02-21T00:24:23;21.60;58.40
13369;DHT22;6753;52.520;13.450;2024-02-21T00:24:34;21.60;58.30
13369;DHT22;6753;52.520;13.450;2024-02-21T00:24:44;21.60;58.30
13369;DHT22;6753;52.520;13.450;2024-02-21T00:24:55;21.60;58.30
13369;DHT22;6753;52.520;13.450;2024-02-21T00:25:07;21.60;58.30
13369;DHT22;6753;52.520;13.450;2024-02-21T00:25:19;21.60;58.30
13369;DHT22;6753;52.520;13.450;2024-02-21T00:25:30;21.60;58.30
13369;DHT22;6753;52.520;13.450;2024-02-21T00:25:41;21.60;58.30
13369;DHT22;6753;52.520;13.450;2024-02-21T00:25:51;21.60;58.30
13369;DHT22;6753;52.520;13.450;2024-02-21T00:26:03;21.60;58.30
13369;DHT22;6753;52.520;13.450;2024-02-21T00:26:16;21.60;58.30
13369;DHT22;6753;52.520;13.450;2024-02-21T00:26:27;21.60;58.20
13369;DHT22;6753;52.520;13.450;2024-02-21T00:26:37;21.60;58.20
13369;DHT22;6753;52.520;13.450;2024-02-21T00:26:48;21.60;58.20
13369;DHT22;6753;52.520;13.450;2024-02-21T00:26:59;21.60;58.20
13369;DHT22;6753;52.520;13.450;2024-02-21T00:27:09;21.60;58.20
13369;DHT22;6753;52.520;13.450;2024-02-21T00:27:20;21.60;58.20
13369;DHT22;6753;52.520;13.450;2024-02-21T00:27:31;21.60;58.20
13369;DHT22;6753;52.520;13.450;2024-02-21T00:27:42;21.60;58.30
13369;DHT22;6753;52.520;13.450;2024-02-21T00:27:53;21.70;58.90
13369;DHT22;6753;52.520;13.450;2024-02-21T00:28:05;21.70;58.50
13369;DHT22;6753;52.520;13.450;2024-02-21T00:28:16;21.60;58.30
13369;DHT22;6753;52.520;13.450;2024-02-21T00:28:27;21.60;58.40
13369;DHT22;6753;52.520;13.450;2024-02-21T00:28:37;21.60;58.40
13369;DHT22;6753;52.520;13.450;2024-02-21T00:28:48;21.60;58.40
13369;DHT22;6753;52.520;13.450;2024-02-21T00:28:59;21.60;58.40
13369;DHT22;6753;52.520;13.450;2024-02-21T00:29:10;21.70;58.50
13369;DHT22;6753;52.520;13.450;2024-02-21T00:29:20;21.70;58.50
13369;DHT22;6753;52.520;13.450;2024-02-21T00:29:31;21.60;58.40
13369;DHT22;6753;52.520;13.450;2024-02-21T00:29:43;21.70;58.60
13369;DHT22;6753;52.520;13.450;2024-02-21T00:29:54;21.60;58.40
13369;DHT22;6753;52.520;13.450;2024-02-21T00:30:05;21.70;58.60
13369;DHT22;6753;52.520;13.450;2024-02-21T00:30:16;21.70;58.60
13369;DHT22;6753;52.520;13.450;2024-02-21T00:30:27;21.70;58.60
13369;DHT22;6753;52.520;13.450;2024-02-21T00:30:38;21.60;58.40
13369;DHT22;6753;52.520;13.450;2024-02-21T00:30:48;21.60;58.40
13369;DHT22;6753;52.520;13.450;2024-02-21T00:31:00;21.60;58.40
13369;DHT22;6753;52.520;13.450;2024-02-21T00:31:11;21.70;58.60
13369;DHT22;6753;52.520;13.450;2024-02-21T00:31:22;21.70;58.60
13369;DHT22;6753;52.520;13.450;2024-02-21T00:31:34;21.70;58.60
13369;DHT22;6753;52.520;13.450;2024-02-21T00:31:45;21.70;58.60
13369;DHT22;6753;52.520;13.450;2024-02-21T00:31:55;21.70;58.60
13369;DHT22;6753;52.520;13.450;2024-02-21T00:32:06;21.70;58.60
13369;DHT22;6753;52.520;13.450;2024-02-21T00:32:17;21.70;58.60
13369;DHT22;6753;52.520;13.450;2024-02-21T00:32:28;21.70;58.60
13369;DHT22;6753;52.520;13.450;2024-02-21T00:32:38;21.70;58.60
13369;DHT22;6753;52.520;13.450;2024-02-21T00:32:50;21.70;58.60
13369;DHT22;6753;52.520;13.450;2024-02-21T00:33:01;21.70;58.60
13369;DHT22;6753;52.520;13.450;2024-02-21T00:33:12;21.70;58.60
13369;DHT22;6753;52.520;13.450;2024-02-21T00:33:24;21.70;58.60
13369;DHT22;6753;52.520;13.450;2024-02-21T00:33:34;21.70;58.60
13369;DHT22;6753;52.520;13.450;2024-02-21T00:33:45;21.70;58.60
13369;DHT22;6753;52.520;13.450;2024-02-21T00:33:56;21.70;58.60
13369;DHT22;6753;52.520;13.450;2024-02-21T00:34:06;21.70;58.60
13369;DHT22;6753;52.520;13.450;2024-02-21T00:34:17;21.70;58.60
13369;DHT22;6753;52.520;13.450;2024-02-21T00:34:28;21.70;58.60
13369;DHT22;6753;52.520;13.450;2024-02-21T00:34:39;21.70;58.50
13369;DHT22;6753;52.520;13.450;2024-02-21T00:34:49;21.70;58.50
13369;DHT22;6753;52.520;13.450;2024-02-21T00:35:01;21.70;58.50
13369;DHT22;6753;52.520;13.450;2024-02-21T00:35:13;21.70;58.60
13369;DHT22;6753;52.520;13.450;2024-02-21T00:35:24;21.70;58.60
13369;DHT22;6753;52.520;13.450;2024-02-21T00:35:35;21.70;58.60
13369;DHT22;6753;52.520;13.450;2024-02-21T00:35:46;21.70;58.60
13369;DHT22;6753;52.520;13.450;2024-02-21T00:35:57;21.70;58.60
13369;DHT22;6753;52.520;13.450;2024-02-21T00:36:08;21.70;58.60
13369;DHT22;6753;52.520;13.450;2024-02-21T00:36:18;21.70;58.60
13369;DHT22;6753;52.520;13.450;2024-02-21T00:36:29;21.70;58.60
13369;DHT22;6753;52.520;13.450;2024-02-21T00:36:40;21.70;58.60
13369;DHT22;6753;52.520;13.450;2024-02-21T00:36:50;21.70;58.60
13369;DHT22;6753;52.520;13.450;2024-02-21T00:37:02;21.70;58.60
13369;DHT22;6753;52.520;13.450;2024-02-21T00:37:13;21.70;58.60
13369;DHT22;6753;52.520;13.450;2024-02-21T00:37:24;21.70;58.60
13369;DHT22;6753;52.520;13.450;2024-02-21T00:37:34;21.70;58.40
13369;DHT22;6753;52.520;13.450;2024-02-21T00:37:45;21.60;58.10
13369;DHT22;6753;52.520;13.450;2024-02-21T00:37:56;21.60;58.20
13369;DHT22;6753;52.520;13.450;2024-02-21T00:38:07;21.60;58.30
13369;DHT22;6753;52.520;13.450;2024-02-21T00:38:18;21.60;58.50
13369;DHT22;6753;52.520;13.450;2024-02-21T00:38:29;21.70;58.70
13369;DHT22;6753;52.520;13.450;2024-02-21T00:38:39;21.70;58.70
13369;DHT22;6753;52.520;13.450;2024-02-21T00:38:51;21.70;59.30
13369;DHT22;6753;52.520;13.450;2024-02-21T00:39:02;21.70;58.70
13369;DHT22;6753;52.520;13.450;2024-02-21T00:39:13;21.70;58.70
13369;DHT22;6753;52.520;13.450;2024-02-21T00:39:24;21.70;58.80
13369;DHT22;6753;52.520;13.450;2024-02-21T00:39:34;21.70;58.80
13369;DHT22;6753;52.520;13.450;2024-02-21T00:39:45;21.70;58.80
13369;DHT22;6753;52.520;13.450;2024-02-21T00:39:56;21.70;58.80
13369;DHT22;6753;52.520;13.450;2024-02-21T00:40:07;21.70;58.70
13369;DHT22;6753;52.520;13.450;2024-02-21T00:40:18;21.70;58.70
13369;DHT22;6753;52.520;13.450;2024-02-21T00:40:30;21.70;58.70
13369;DHT22;6753;52.520;13.450;2024-02-21T00:40:41;21.70;58.70
13369;DHT22;6753;52.520;13.450;2024-02-21T00:40:53;21.70;58.70
13369;DHT22;6753;52.520;13.450;2024-02-21T00:41:03;21.70;58.70
13369;DHT22;6753;52.520;13.450;2024-02-21T00:41:14;21.70;58.70
13369;DHT22;6753;52.520;13.450;2024-02-21T00:41:25;21.70;58.70
13369;DHT22;6753;52.520;13.450;2024-02-21T00:41:36;21.70;58.70
13369;DHT22;6753;52.520;13.450;2024-02-21T00:41:47;21.70;58.70
13369;DHT22;6753;52.520;13.450;2024-02-21T00:41:58;21.70;58.70
13369;DHT22;6753;52.520;13.450;2024-02-21T00:42:08;21.70;58.70
13369;DHT22;6753;52.520;13.450;2024-02-21T00:42:19;21.70;58.70
13369;DHT22;6753;52.520;13.450;2024-02-21T00:42:30;21.70;58.70
13369;DHT22;6753;52.520;13.450;2024-02-21T00:42:41;21.70;58.80
13369;DHT22;6753;52.520;13.450;2024-02-21T00:42:51;21.70;58.70
13369;DHT22;6753;52.520;13.450;2024-02-21T00:43:02;21.70;58.80
13369;DHT22;6753;52.520;13.450;2024-02-21T00:43:14;21.70;58.70
13369;DHT22;6753;52.520;13.450;2024-02-21T00:43:25;21.70;58.70
13369;DHT22;6753;52.520;13.450;2024-02-21T00:43:36;21.70;58.70
13369;DHT22;6753;52.520;13.450;2024-02-21T00:43:46;21.70;58.70
13369;DHT22;6753;52.520;13.450;2024-02-21T00:43:59;21.70;58.70
13369;DHT22;6753;52.520;13.450;2024-02-21T00:44:09;21.70;58.70
13369;DHT22;6753;52.520;13.450;2024-02-21T00:44:20;21.70;58.70
13369;DHT22;6753;52.520;13.450;2024-02-21T00:44:31;21.70;58.70
13369;DHT22;6753;52.520;13.450;2024-02-21T00:44:42;21.70;58.70
13369;DHT22;6753;52.520;13.450;2024-02-21T00:44:53;21.70;58.70
13369;DHT22;6753;52.520;13.450;2024-02-21T00:45:04;21.70;58.70
13369;DHT22;6753;52.520;13.450;2024-02-21T00:45:17;21.70;58.70
13369;DHT22;6753;52.520;13.450;2024-02-21T00:45:28;21.70;58.70
13369;DHT22;6753;52.520;13.450;2024-02-21T00:45:38;21.70;58.70
13369;DHT22;6753;52.520;13.450;2024-02-21T00:45:49;21.70;58.70
13369;DHT22;6753;52.520;13.450;2024-02-21T00:46:00;21.70;58.70
13369;DHT22;6753;52.520;13.450;2024-02-21T00:46:10;21.70;58.70
13369;DHT22;6753;52.520;13.450;2024-02-21T00:46:21;21.70;58.70
13369;DHT22;6753;52.520;13.450;2024-02-21T00:46:32;21.70;58.70
13369;DHT22;6753;52.520;13.450;2024-02-21T00:46:43;21.70;58.70
13369;DHT22;6753;52.520;13.450;2024-02-21T00:46:54;21.70;58.60
13369;DHT22;6753;52.520;13.450;2024-02-21T00:47:06;21.80;58.90
13369;DHT22;6753;52.520;13.450;2024-02-21T00:47:16;21.70;58.70
13369;DHT22;6753;52.520;13.450;2024-02-21T00:47:27;21.70;58.70
13369;DHT22;6753;52.520;13.450;2024-02-21T00:47:38;21.70;58.70
13369;DHT22;6753;52.520;13.450;2024-02-21T00:47:48;21.70;58.70
13369;DHT22;6753;52.520;13.450;2024-02-21T00:48:01;21.70;58.70
13369;DHT22;6753;52.520;13.450;2024-02-21T00:48:11;21.70;58.70
13369;DHT22;6753;52.520;13.450;2024-02-21T00:48:22;21.70;58.70
13369;DHT22;6753;52.520;13.450;2024-02-21T00:48:33;21.70;58.70
13369;DHT22;6753;52.520;13.450;2024-02-21T00:48:45;21.70;58.80
13369;DHT22;6753;52.520;13.450;2024-02-21T00:48:56;21.70;58.50
13369;DHT22;6753;52.520;13.450;2024-02-21T00:49:07;21.70;58.60
13369;DHT22;6753;52.520;13.450;2024-02-21T00:49:17;21.70;58.70
13369;DHT22;6753;52.520;13.450;2024-02-21T00:49:28;21.70;58.80
13369;DHT22;6753;52.520;13.450;2024-02-21T00:49:39;21.70;58.70
13369;DHT22;6753;52.520;13.450;2024-02-21T00:49:50;21.70;58.70
13369;DHT22;6753;52.520;13.450;2024-02-21T00:50:00;21.70;58.70
13369;DHT22;6753;52.520;13.450;2024-02-21T00:50:11;21.70;58.70
13369;DHT22;6753;52.520;13.450;2024-02-21T00:50:22;21.70;58.70
13369;DHT22;6753;52.520;13.450;2024-02-21T00:50:34;21.70;58.70
13369;DHT22;6753;52.520;13.450;2024-02-21T00:50:45;21.70;58.70
13369;DHT22;6753;52.520;13.450;2024-02-21T00:50:55;21.70;58.70
13369;DHT22;6753;52.520;13.450;2024-02-21T00:51:06;21.70;58.80
13369;DHT22;6753;52.520;13.450;2024-02-21T00:51:17;21.60;58.60
13369;DHT22;6753;52.520;13.450;2024-02-21T00:51:27;21.60;58.70
13369;DHT22;6753;52.520;13.450;2024-02-21T00:51:38;21.70;58.90
13369;DHT22;6753;52.520;13.450;2024-02-21T00:51:49;21.70;58.90
13369;DHT22;6753;52.520;13.450;2024-02-21T00:52:01;21.70;58.70
13369;DHT22;6753;52.520;13.450;2024-02-21T00:52:12;21.70;58.70
13369;DHT22;6753;52.520;13.450;2024-02-21T00:52:23;21.70;58.70
13369;DHT22;6753;52.520;13.450;2024-02-21T00:52:35;21.70;58.80
13369;DHT22;6753;52.520;13.450;2024-02-21T00:52:45;21.70;58.80
13369;DHT22;6753;52.520;13.450;2024-02-21T00:52:56;21.70;58.90
13369;DHT22;6753;52.520;13.450;2024-02-21T00:53:07;21.70;58.90
13369;DHT22;6753;52.520;13.450;2024-02-21T00:53:17;21.70;59.00
13369;DHT22;6753;52.520;13.450;2024-02-21T00:53:28;21.70;59.00
13369;DHT22;6753;52.520;13.450;2024-02-21T00:53:39;21.70;59.10
13369;DHT22;6753;52.520;13.450;2024-02-21T00:53:50;21.60;58.90
13369;DHT22;6753;52.520;13.450;2024-02-21T00:54:03;21.70;59.00
13369;DHT22;6753;52.520;13.450;2024-02-21T00:54:14;21.70;59.00
13369;DHT22;6753;52.520;13.450;2024-02-21T00:54:28;21.70;59.00
13369;DHT22;6753;52.520;13.450;2024-02-21T00:54:38;21.70;59.00
13369;DHT22;6753;52.520;13.450;2024-02-21T00:54:49;21.70;59.00
13369;DHT22;6753;52.520;13.450;2024-02-21T00:55:00;21.70;59.00
13369;DHT22;6753;52.520;13.450;2024-02-21T00:55:10;21.70;59.00
13369;DHT22;6753;52.520;13.450;2024-02-21T00:55:21;21.70;59.00
13369;DHT22;6753;52.520;13.450;2024-02-21T00:55:32;21.70;59.00
13369;DHT22;6753;52.520;13.450;2024-02-21T00:55:43;21.70;59.00
13369;DHT22;6753;52.520;13.450;2024-02-21T00:55:54;21.70;59.00
13369;DHT22;6753;52.520;13.450;2024-02-21T00:56:05;21.70;59.00
13369;DHT22;6753;52.520;13.450;2024-02-21T00:56:17;21.70;59.00
13369;DHT22;6753;52.520;13.450;2024-02-21T00:56:27;21.70;59.00
13369;DHT22;6753;52.520;13.450;2024-02-21T00:56:38;21.70;59.00
13369;DHT22;6753;52.520;13.450;2024-02-21T00:56:49;21.70;59.60
13369;DHT22;6753;52.520;13.450;2024-02-21T00:57:00;21.70;59.10
13369;DHT22;6753;52.520;13.450;2024-02-21T00:57:10;21.70;59.10
13369;DHT22;6753;52.520;13.450;2024-02-21T00:57:23;21.70;59.00
13369;DHT22;6753;52.520;13.450;2024-02-21T00:57:34;21.70;59.00
13369;DHT22;6753;52.520;13.450;2024-02-21T00:57:45;21.70;59.00
13369;DHT22;6753;52.520;13.450;2024-02-21T00:57:56;21.70;59.00
13369;DHT22;6753;52.520;13.450;2024-02-21T00:58:07;21.80;59.10
13369;DHT22;6753;52.520;13.450;2024-02-21T00:58:18;21.70;59.10
13369;DHT22;6753;52.520;13.450;2024-02-21T00:58:32;21.70;59.10
13369;DHT22;6753;52.520;13.450;2024-02-21T00:58:43;23.30;60.60
13369;DHT22;6753;52.520;13.450;2024-02-21T00:58:53;21.70;59.00
13369;DHT22;6753;52.520;13.450;2024-02-21T00:59:04;21.70;59.00
13369;DHT22;6753;52.520;13.450;2024-02-21T00:59:15;21.80;59.20
13369;DHT22;6753;52.520;13.450;2024-02-21T00:59:25;21.70;59.10
13369;DHT22;6753;52.520;13.450;2024-02-21T00:59:37;21.80;59.20
13369;DHT22;6753;52.520;13.450;2024-02-21T00:59:47;21.70;59.00
13369;DHT22;6753;52.520;13.450;2024-02-21T00:59:58;23.00;60.40
13369;DHT22;6753;52.520;13.450;2024-02-21T01:00:11;21.70;59.00
13369;DHT22;6753;52.520;13.450;2024-02-21T01:00:22;21.70;59.00
13369;DHT22;6753;52.520;13.450;2024-02-21T01:00:33;21.70;59.00
13369;DHT22;6753;52.520;13.450;2024-02-21T01:00:46;21.70;59.40
13369;DHT22;6753;52.520;13.450;2024-02-21T01:00:57;21.40;58.60
13369;DHT22;6753;52.520;13.450;2024-02-21T01:01:08;21.70;59.20
13369;DHT22;6753;52.520;13.450;2024-02-21T01:01:22;21.80;59.30
13369;DHT22;6753;52.520;13.450;2024-02-21T01:01:33;21.80;59.10
13369;DHT22;6753;52.520;13.450;2024-02-21T01:01:43;21.70;59.00
13369;DHT22;6753;52.520;13.450;2024-02-21T01:01:54;21.70;59.00
13369;DHT22;6753;52.520;13.450;2024-02-21T01:02:06;21.70;59.00
13369;DHT22;6753;52.520;13.450;2024-02-21T01:02:16;21.70;59.00
13369;DHT22;6753;52.520;13.450;2024-02-21T01:02:27;21.70;59.00
13369;DHT22;6753;52.520;13.450;2024-02-21T01:02:38;21.80;59.20
13369;DHT22;6753;52.520;13.450;2024-02-21T01:02:49;21.70;59.00
13369;DHT22;6753;52.520;13.450;2024-02-21T01:03:01;21.70;59.00
13369;DHT22;6753;52.520;13.450;2024-02-21T01:03:12;21.70;59.00
13369;DHT22;6753;52.520;13.450;2024-02-21T01:03:22;21.70;59.10
13369;DHT22;6753;52.520;13.450;2024-02-21T01:03:33;21.70;59.00
13369;DHT22;6753;52.520;13.450;2024-02-21T01:03:44;20.60;57.40
13369;DHT22;6753;52.520;13.450;2024-02-21T01:03:55;21.70;59.00
13369;DHT22;6753;52.520;13.450;2024-02-21T01:04:06;21.70;59.00
13369;DHT22;6753;52.520;13.450;2024-02-21T01:04:17;21.70;58.90
13369;DHT22;6753;52.520;13.450;2024-02-21T01:04:28;21.70;58.90
13369;DHT22;6753;52.520;13.450;2024-02-21T01:04:39;21.70;58.90
13369;DHT22;6753;52.520;13.450;2024-02-21T01:04:49;21.70;58.90
13369;DHT22;6753;52.520;13.450;2024-02-21T01:05:01;21.70;59.00
13369;DHT22;6753;52.520;13.450;2024-02-21T01:05:12;21.70;59.00
13369;DHT22;6753;52.520;13.450;2024-02-21T01:05:23;21.70;59.00
13369;DHT22;6753;52.520;13.450;2024-02-21T01:05:33;21.70;58.90
13369;DHT22;6753;52.520;13.450;2024-02-21T01:05:44;21.70;58.90
13369;DHT22;6753;52.520;13.450;2024-02-21T01:05:56;21.70;58.90
13369;DHT22;6753;52.520;13.450;2024-02-21T01:06:07;21.70;59.00
13369;DHT22;6753;52.520;13.450;2024-02-21T01:06:18;21.70;58.90
13369;DHT22;6753;52.520;13.450;2024-02-21T01:06:28;21.70;58.90
13369;DHT22;6753;52.520;13.450;2024-02-21T01:06:39;21.70;59.00
13369;DHT22;6753;52.520;13.450;2024-02-21T01:06:53;21.70;59.00
13369;DHT22;6753;52.520;13.450;2024-02-21T01:07:04;21.70;58.90
13369;DHT22;6753;52.520;13.450;2024-02-21T01:07:15;21.70;59.00
13369;DHT22;6753;52.520;13.450;2024-02-21T01:07:25;24.00;61.00
13369;DHT22;6753;52.520;13.450;2024-02-21T01:07:36;21.70;58.90
13369;DHT22;6753;52.520;13.450;2024-02-21T01:07:48;21.70;59.00
13369;DHT22;6753;52.520;13.450;2024-02-21T01:07:58;21.70;59.00
13369;DHT22;6753;52.520;13.450;2024-02-21T01:08:09;21.60;58.90
13369;DHT22;6753;52.520;13.450;2024-02-21T01:08:20;21.60;59.00
13369;DHT22;6753;52.520;13.450;2024-02-21T01:08:31;21.60;59.00
13369;DHT22;6753;52.520;13.450;2024-02-21T01:08:41;21.60;59.20
13369;DHT22;6753;52.520;13.450;2024-02-21T01:08:52;21.60;59.00
13369;DHT22;6753;52.520;13.450;2024-02-21T01:09:03;21.70;59.10
13369;DHT22;6753;52.520;13.450;2024-02-21T01:09:14;21.60;59.00
13369;DHT22;6753;52.520;13.450;2024-02-21T01:09:26;21.60;59.00
13369;DHT22;6753;52.520;13.450;2024-02-21T01:09:36;21.60;59.00